CDT,Max TemperatureF,Mean TemperatureF,Min TemperatureF,Max Dew PointF,MeanDew PointF,Min DewpointF,Max Humidity, Mean Humidity, Min Humidity, Max Sea Level PressureIn, Mean Sea Level PressureIn, Min Sea Level PressureIn, Max VisibilityMiles, Mean VisibilityMiles, Min VisibilityMiles, Max Wind SpeedMPH, Mean Wind SpeedMPH, Max Gust SpeedMPH,PrecipitationIn, CloudCover, Events, WindDirDegrees
2013-9-1,83,72,61,70,62,56,97,70,42,29.96,29.85,29.73,10,9,4,25,12,33,0.12,1,Rain-Thunderstorm,340
2013-9-2,78,66,54,56,53,47,93,63,33,30.06,30.02,29.96,10,10,8,18,8,25,0.00,0,,357
2013-9-3,80,62,44,59,51,42,100,70,39,30.13,30.07,30.02,10,8,0,9,1,13,0.00,0,Fog,185
2013-9-4,88,71,54,67,60,53,100,68,36,30.14,30.09,30.05,10,10,8,12,3,15,0.00,0,,247
2013-9-5,90,77,64,67,63,61,87,64,40,30.19,30.13,30.10,10,10,10,9,1,12,0.00,0,,290
2013-9-6,90,76,61,65,61,58,100,67,34,30.13,30.06,29.92,10,6,0,17,7,22,0.00,0,Fog,171
2013-9-7,89,78,67,71,66,60,93,70,47,29.92,29.88,29.84,10,10,6,23,5,31,T,1,Rain-Thunderstorm,239
2013-9-8,84,77,69,70,69,68,97,79,61,29.96,29.89,29.81,9,6,4,15,8,22,0.00,3,,71
2013-9-9,99,83,66,69,65,59,100,64,28,29.83,29.80,29.75,10,5,0,23,9,31,0.00,0,Fog,194
2013-9-10,96,81,65,67,63,59,81,56,31,29.98,29.91,29.84,10,10,8,24,11,31,0.06,1,Thunderstorm,240
2013-9-11,87,75,62,68,64,59,93,69,45,30.07,30.04,29.98,10,10,6,15,3,18,0.18,2,Rain-Thunderstorm,286
2013-9-12,79,67,54,59,50,43,90,59,28,30.19,30.14,30.06,10,10,10,23,10,29,0.00,0,,349
2013-9-13,73,59,45,48,45,43,86,61,35,30.25,30.18,30.12,10,10,10,10,3,14,0.00,0,,45
2013-9-14,76,58,40,49,43,38,93,61,29,30.13,30.03,29.90,10,10,10,17,7,23,T,1,,173
2013-9-15,70,62,54,60,53,47,81,65,48,30.24,30.01,29.84,10,10,10,22,10,25,0.00,7,,357
2013-9-16,68,59,50,54,51,49,96,76,56,30.37,30.31,30.25,10,10,10,13,5,15,0.00,5,,99
2013-9-17,65,58,51,63,55,49,100,89,77,30.25,30.11,29.99,10,4,1,14,8,20,0.47,7,Rain,141
2013-9-18,90,77,64,69,65,62,100,74,47,30.00,29.86,29.72,10,6,2,23,11,28,0.07,5,Rain-Thunderstorm,162
2013-9-19,85,74,63,69,66,62,100,76,51,29.85,29.78,29.72,10,9,2,24,9,32,0.83,5,Rain-Thunderstorm,229
2013-9-20,67,58,48,56,49,41,83,70,56,29.99,29.95,29.87,10,10,6,21,12,26,0.00,4,,313
2013-9-21,73,57,41,47,43,39,93,64,34,30.03,29.97,29.91,10,10,10,12,3,24,0.00,0,,299
2013-9-22,78,61,44,53,49,44,100,70,40,29.98,29.93,29.87,10,10,3,17,6,21,0.00,0,,151
2013-9-23,76,61,46,53,49,45,93,66,38,29.96,29.90,29.83,10,10,10,22,9,29,0.00,0,,140
2013-9-24,75,64,53,56,52,48,86,70,53,29.91,29.87,29.85,10,10,10,14,6,17,T,1,,94
2013-9-25,78,63,48,57,52,46,93,68,43,29.96,29.89,29.83,10,8,2,15,5,18,0.00,0,,110
2013-9-26,84,71,57,61,57,52,86,66,46,29.93,29.88,29.84,10,10,7,22,11,32,0.00,0,,144
2013-9-27,87,75,63,63,60,56,90,63,35,29.96,29.90,29.85,10,9,6,24,13,32,0.00,0,,157
2013-9-28,70,57,44,64,55,44,93,77,60,30.04,29.87,29.76,10,8,3,25,10,33,0.19,5,Rain,254
2013-9-29,75,57,39,48,43,39,100,67,33,30.07,30.00,29.91,10,10,2,18,7,24,0.00,0,,187
2013-9-30,77,61,45,55,49,44,93,65,36,29.91,29.82,29.73,10,10,10,23,10,30,0.00,0,,168